Time;durP1;ratioP1;P1;durP2;ratioP2;P2;SDS_P1;SDS_P2;PMS_P1;PMS_P2;Temp;Humidity;BMP_temperature;BMP_pressure;BME280_temperature;BME280_humidity;BME280_pressure;Samples;Min_cycle;Max_cycle;Signal;HPM_P1;HPM_P2
2024/03/31 00:02:40;;;;;;;;;9.00;8.00;;;;;19.66;100.00;97686.63;6070375;28;96353;-57
2024/03/31 00:05:41;;;;;;;;;7.50;5.75;;;;;19.56;100.00;97695.88;6077470;28;96363;-57
2024/03/31 00:08:45;;;;;;;;;6.40;6.00;;;;;19.50;100.00;97694.38;6057478;28;96578;-57
2024/03/31 00:11:46;;;;;;;;;5.75;5.00;;;;;19.46;100.00;97677.78;6061938;28;96426;-57
2024/03/31 00:14:49;;;;;;;;;8.00;6.00;;;;;19.47;100.00;97686.81;6060893;28;96632;-58
2024/03/31 00:17:52;;;;;;;;;9.80;7.20;;;;;19.48;100.00;97676.69;6074554;28;96935;-58
2024/03/31 00:20:53;;;;;;;;;6.00;5.00;;;;;19.45;100.00;97670.69;6085151;28;96410;-57
2024/03/31 00:23:55;;;;;;;;;8.40;6.40;;;;;19.44;100.00;97676.50;6079856;28;96584;-58
2024/03/31 00:26:57;;;;;;;;;6.00;5.80;;;;;19.39;100.00;97669.19;6057794;28;96265;-57
2024/03/31 00:30:00;;;;;;;;;6.60;5.00;;;;;19.32;100.00;97663.34;6061952;28;96424;-57
2024/03/31 00:33:01;;;;;;;;;8.00;7.00;;;;;19.20;100.00;97654.88;6070447;28;96477;-57
2024/03/31 00:36:05;;;;;;;;;5.50;5.50;;;;;19.22;100.00;97654.53;6062021;28;96739;-57
2024/03/31 00:39:09;;;;;;;;;10.00;7.00;;;;;19.21;100.00;97650.19;6061955;28;96881;-57
2024/03/31 00:42:11;;;;;;;;;8.20;7.00;;;;;19.06;100.00;97643.13;6084243;28;96372;-58
2024/03/31 00:45:13;;;;;;;;;7.00;6.00;;;;;19.09;100.00;97647.19;6069861;28;96824;-58
2024/03/31 00:48:16;;;;;;;;;8.00;7.40;;;;;18.99;100.00;97645.50;6058685;28;96271;-58
2024/03/31 00:51:17;;;;;;;;;7.40;5.00;;;;;19.03;100.00;97643.75;6060968;28;97477;-57
2024/03/31 00:54:19;;;;;;;;;7.40;6.00;;;;;19.01;100.00;97637.78;6084923;28;96404;-57
2024/03/31 00:57:21;;;;;;;;;6.20;6.00;;;;;19.03;100.00;97641.84;6068427;28;96320;-57
2024/03/31 01:00:25;;;;;;;;;5.60;5.40;;;;;19.03;100.00;97644.56;6061056;28;96393;-58
2024/03/31 01:03:26;;;;;;;;;6.00;5.00;;;;;18.96;100.00;97630.50;6074163;28;96404;-58
2024/03/31 01:06:28;;;;;;;;;7.00;5.60;;;;;18.91;100.00;97627.13;6084098;28;96380;-57
2024/03/31 01:09:30;;;;;;;;;9.00;6.00;;;;;18.82;100.00;97626.19;6078124;28;96586;-57
2024/03/31 01:12:33;;;;;;;;;7.25;7.00;;;;;18.81;100.00;97627.31;6061705;28;96456;-58
2024/03/31 01:15:36;;;;;;;;;8.00;6.40;;;;;18.80;100.00;97633.88;6077565;28;96989;-58
2024/03/31 01:18:38;;;;;;;;;6.00;6.00;;;;;18.73;100.00;97631.56;6056546;28;96276;-58
2024/03/31 01:21:42;;;;;;;;;7.00;6.40;;;;;18.67;100.00;97624.59;6067701;28;96378;-57
2024/03/31 01:24:44;;;;;;;;;7.00;6.00;;;;;18.63;100.00;97623.56;6089216;28;96375;-58
2024/03/31 01:27:46;;;;;;;;;6.00;6.00;;;;;18.58;100.00;97618.22;6057295;28;97064;-60
2024/03/31 01:30:48;;;;;;;;;7.80;6.80;;;;;18.54;100.00;97617.22;6056586;28;96421;-60
2024/03/31 01:33:51;;;;;;;;;6.60;5.00;;;;;18.49;100.00;97620.84;6053502;28;96370;-60
2024/03/31 01:36:52;;;;;;;;;9.40;8.40;;;;;18.41;100.00;97604.38;6066929;28;96468;-60
2024/03/31 01:39:58;;;;;;;;;6.00;5.00;;;;;18.40;100.00;97616.38;6055080;28;96441;-60
2024/03/31 01:42:59;;;;;;;;;9.00;7.00;;;;;18.33;100.00;97619.50;6058315;28;97771;-60
2024/03/31 01:46:01;;;;;;;;;6.40;5.00;;;;;18.27;100.00;97611.75;6048533;28;97055;-60
2024/03/31 01:49:04;;;;;;;;;6.00;5.00;;;;;18.15;100.00;97604.03;6041551;28;96434;-60
2024/03/31 01:52:05;;;;;;;;;7.00;6.40;;;;;18.09;100.00;97600.59;6047853;28;98694;-60
2024/03/31 01:55:09;;;;;;;;;8.80;6.20;;;;;18.01;100.00;97593.13;6038633;28;98563;-60
2024/03/31 01:58:11;;;;;;;;;7.40;5.00;;;;;18.02;100.00;97602.94;6031886;28;96864;-59
2024/03/31 02:01:13;;;;;;;;;6.00;6.00;;;;;17.99;100.00;97605.41;6027458;28;96854;-60
2024/03/31 02:04:15;;;;;;;;;5.00;5.00;;;;;17.77;100.00;97580.75;6060679;28;96904;-60
2024/03/31 02:07:17;;;;;;;;;6.50;5.50;;;;;17.90;100.00;97607.22;6076723;28;96325;-60
2024/03/31 02:10:19;;;;;;;;;7.60;6.00;;;;;17.87;100.00;97605.09;6069147;28;96383;-60
2024/03/31 02:13:22;;;;;;;;;6.50;5.00;;;;;17.84;100.00;97603.00;6091541;28;96476;-60
2024/03/31 02:16:24;;;;;;;;;7.00;5.00;;;;;17.83;100.00;97598.66;6061741;28;96421;-60
2024/03/31 02:19:25;;;;;;;;;7.25;5.00;;;;;17.89;100.00;97600.16;6060468;28;96924;-60
2024/03/31 02:22:27;;;;;;;;;6.60;6.00;;;;;17.88;100.00;97607.53;6060198;28;96884;-60
2024/03/31 02:25:30;;;;;;;;;7.40;6.00;;;;;17.88;100.00;97602.09;6060390;28;96847;-60
2024/03/31 02:28:33;;;;;;;;;7.00;6.00;;;;;17.82;100.00;97597.84;6081271;28;96639;-60
2024/03/31 02:31:34;;;;;;;;;5.00;5.00;;;;;17.89;100.00;97602.88;6045444;28;96927;-60
2024/03/31 02:34:38;;;;;;;;;6.60;5.40;;;;;17.84;100.00;97608.44;6047605;28;98176;-60
2024/03/31 02:37:41;;;;;;;;;7.00;5.00;;;;;17.74;100.00;97584.88;6069548;28;96372;-58
2024/03/31 02:40:45;;;;;;;;;8.00;6.40;;;;;17.81;100.00;97606.31;6052052;28;96426;-58
2024/03/31 02:43:46;;;;;;;;;6.60;5.00;;;;;17.75;100.00;97594.66;6039310;28;98658;-58
2024/03/31 02:46:48;;;;;;;;;8.00;6.00;;;;;17.79;100.00;97584.00;6052323;28;96376;-58
2024/03/31 02:49:50;;;;;;;;;6.00;5.00;;;;;17.81;100.00;97600.84;6051889;28;96564;-58
2024/03/31 02:52:52;;;;;;;;;7.00;5.00;;;;;17.76;100.00;97601.75;6053499;28;96974;-58
2024/03/31 02:55:55;;;;;;;;;7.60;6.00;;;;;17.70;100.00;97595.56;6050930;28;96424;-58
2024/03/31 02:58:57;;;;;;;;;5.00;5.00;;;;;17.69;100.00;97599.41;6041457;28;96260;-58
2024/03/31 03:01:59;;;;;;;;;6.00;5.00;;;;;17.67;100.00;97589.91;6066209;28;97603;-58
2024/03/31 03:05:00;;;;;;;;;5.00;5.00;;;;;17.67;100.00;97590.72;6051660;28;96881;-58
2024/03/31 03:08:03;;;;;;;;;4.60;3.00;;;;;17.66;100.00;97583.66;6087802;28;96425;-58
2024/03/31 03:11:05;;;;;;;;;5.50;5.00;;;;;17.74;100.00;97576.69;6054498;28;97403;-59
2024/03/31 03:14:08;;;;;;;;;10.00;7.00;;;;;17.75;100.00;97578.31;6059676;28;96260;-58
2024/03/31 03:17:10;;;;;;;;;6.00;5.00;;;;;17.70;100.00;97581.13;6049498;28;96479;-58
2024/03/31 03:20:11;;;;;;;;;5.40;5.00;;;;;17.67;100.00;97577.09;6079018;28;96707;-58
2024/03/31 03:23:13;;;;;;;;;8.00;7.20;;;;;17.61;100.00;97569.31;6067874;28;96296;-58
2024/03/31 03:26:17;;;;;;;;;6.00;5.00;;;;;17.64;100.00;97568.72;6069842;28;96310;-58
2024/03/31 03:29:19;;;;;;;;;5.20;4.20;;;;;17.60;100.00;97573.13;6042479;28;98416;-58
2024/03/31 03:32:20;;;;;;;;;6.00;5.00;;;;;17.65;100.00;97570.31;6058187;28;96820;-58
2024/03/31 03:35:24;;;;;;;;;5.00;4.00;;;;;17.71;100.00;97569.94;6053056;28;96699;-58
2024/03/31 03:38:27;;;;;;;;;4.50;4.00;;;;;17.67;100.00;97552.56;6043717;28;96618;-59
2024/03/31 03:41:32;;;;;;;;;2.00;2.00;;;;;17.82;100.00;97559.66;6058297;28;96300;-57
2024/03/31 03:44:34;;;;;;;;;3.60;3.00;;;;;18.00;100.00;97566.13;6046597;28;98955;-58
2024/03/31 03:47:36;;;;;;;;;4.00;3.00;;;;;18.25;100.00;97573.84;6068245;28;96787;-56
2024/03/31 03:50:38;;;;;;;;;3.00;3.00;;;;;18.39;100.00;97573.84;6069620;28;96784;-57
2024/03/31 03:53:39;;;;;;;;;3.00;3.00;;;;;18.58;100.00;97569.09;6080109;28;97393;-57
2024/03/31 03:56:44;;;;;;;;;3.75;3.00;;;;;18.72;100.00;97575.34;6074130;28;96712;-57
2024/03/31 03:59:47;;;;;;;;;2.00;2.00;;;;;18.88;100.00;97587.56;6056033;28;96467;-57
2024/03/31 04:02:49;;;;;;;;;4.00;3.00;;;;;19.03;100.00;97587.22;6074591;28;96273;-58
2024/03/31 04:05:55;;;;;;;;;5.00;4.00;;;;;19.22;100.00;97587.06;6062089;28;97216;-57
2024/03/31 04:08:56;;;;;;;;;4.00;3.00;;;;;19.37;100.00;97589.44;6090857;28;96166;-57
2024/03/31 04:11:59;;;;;;;;;4.00;3.00;;;;;19.42;100.00;97593.97;6058161;28;96323;-58
2024/03/31 04:15:02;;;;;;;;;3.60;3.60;;;;;19.43;100.00;97587.38;6080107;28;96571;-57
2024/03/31 04:18:05;;;;;;;;;4.00;3.00;;;;;19.47;100.00;97602.06;6074712;28;96330;-57
2024/03/31 04:21:08;;;;;;;;;5.00;3.40;;;;;19.39;100.00;97600.06;6059150;28;96439;-58
2024/03/31 04:24:09;;;;;;;;;4.00;3.00;;;;;19.26;100.00;97598.16;6061825;28;97181;-57
2024/03/31 04:27:13;;;;;;;;;4.40;3.40;;;;;19.23;100.00;97604.25;6053634;28;96260;-58
2024/03/31 04:30:15;;;;;;;;;4.00;3.00;;;;;19.15;100.00;97592.16;6086982;28;96578;-58
2024/03/31 04:33:17;;;;;;;;;6.00;4.00;;;;;19.16;100.00;97585.53;6076250;28;97742;-57
2024/03/31 04:36:20;;;;;;;;;5.00;4.00;;;;;19.21;100.00;97584.63;6063649;28;96478;-58
2024/03/31 04:39:21;;;;;;;;;3.20;3.00;;;;;19.17;100.00;97568.03;6084675;28;96728;-57
2024/03/31 04:42:25;;;;;;;;;4.33;4.00;;;;;19.16;100.00;97584.72;6046396;28;96889;-58
2024/03/31 04:45:28;;;;;;;;;3.00;3.00;;;;;19.19;100.00;97582.22;6045815;28;96681;-57
2024/03/31 04:48:30;;;;;;;;;4.00;3.80;;;;;19.14;100.00;97579.59;6057500;28;96328;-57
2024/03/31 04:51:32;;;;;;;;;4.00;2.75;;;;;19.10;100.00;97580.53;6061511;28;96394;-57
2024/03/31 04:54:34;;;;;;;;;3.60;3.00;;;;;19.04;100.00;97572.44;6063349;28;96330;-57
2024/03/31 04:57:37;;;;;;;;;5.00;3.00;;;;;18.80;100.00;97547.34;6045285;28;98324;-58
2024/03/31 05:00:39;;;;;;;;;5.00;4.00;;;;;19.06;100.00;97580.31;6049897;28;96310;-58
2024/03/31 05:03:41;;;;;;;;;3.75;3.75;;;;;19.13;100.00;97588.91;6044408;28;98400;-58
2024/03/31 05:06:43;;;;;;;;;4.00;4.00;;;;;19.14;100.00;97589.72;6056115;28;96873;-58
2024/03/31 05:09:44;;;;;;;;;5.00;3.00;;;;;19.11;100.00;97599.31;6070047;28;96370;-58
2024/03/31 05:12:49;;;;;;;;;3.00;2.60;;;;;19.10;100.00;97575.88;6034289;28;96267;-58
2024/03/31 05:15:57;;;;;;;;;4.00;3.00;;;;;19.20;100.00;97586.56;6034437;28;100335;-58
2024/03/31 05:19:00;;;;;;;;;4.00;3.00;;;;;19.20;100.00;97585.75;6047630;28;96454;-58
2024/03/31 05:22:01;;;;;;;;;3.00;3.00;;;;;19.33;100.00;97587.63;6067240;28;96915;-58
2024/03/31 05:25:04;;;;;;;;;5.00;3.60;;;;;19.39;100.00;97597.31;6047980;28;96746;-58
2024/03/31 05:28:08;;;;;;;;;2.20;2.20;;;;;19.42;100.00;97577.56;6050859;28;97102;-58
2024/03/31 05:31:10;;;;;;;;;4.60;4.40;;;;;19.57;100.00;97599.09;6032644;28;96871;-58
2024/03/31 05:34:26;;;;;;;;;4.00;3.25;;;;;19.75;100.00;97603.53;6051977;28;96607;-58
2024/03/31 05:37:28;;;;;;;;;4.00;3.00;;;;;19.91;100.00;97598.50;6066811;28;96610;-58
2024/03/31 05:40:30;;;;;;;;;4.00;3.80;;;;;20.09;100.00;97596.66;6051094;28;96723;-58
2024/03/31 05:43:33;;;;;;;;;5.00;4.00;;;;;20.22;100.00;97590.31;6063104;28;96809;-59
2024/03/31 05:46:35;;;;;;;;;5.00;4.80;;;;;20.39;100.00;97589.56;6051746;28;96698;-58
2024/03/31 05:49:37;;;;;;;;;5.00;4.00;;;;;20.54;100.00;97583.66;6064618;28;96844;-58
2024/03/31 05:52:39;;;;;;;;;3.75;3.75;;;;;20.65;100.00;97585.00;6056673;28;96578;-58
2024/03/31 05:55:41;;;;;;;;;5.00;4.00;;;;;20.77;100.00;97579.69;6061512;28;96368;-58
2024/03/31 05:58:44;;;;;;;;;5.00;4.00;;;;;20.93;100.00;97585.53;6060708;28;96613;-58
2024/03/31 06:01:50;;;;;;;;;5.00;4.00;;;;;21.06;100.00;97560.72;6077452;28;96477;-58
2024/03/31 06:04:53;;;;;;;;;5.00;4.00;;;;;21.33;100.00;97578.81;6036457;28;96989;-58
2024/03/31 06:07:55;;;;;;;;;4.00;3.00;;;;;21.59;100.00;97587.03;6460036;22;98516;-58
2024/03/31 06:10:58;;;;;;;;;4.00;2.60;;;;;21.89;100.00;97590.69;6096338;28;96357;-58
2024/03/31 06:14:00;;;;;;;;;4.00;3.00;;;;;22.15;100.00;97587.88;6157599;23;97637;-58
2024/03/31 06:17:03;;;;;;;;;4.00;3.00;;;;;22.37;100.00;97584.91;6104688;28;96247;-57
2024/03/31 06:20:06;;;;;;;;;4.00;3.00;;;;;22.60;99.80;97594.50;6110367;28;96378;-57
2024/03/31 06:23:08;;;;;;;;;3.00;2.50;;;;;22.82;98.73;97590.69;6144485;23;96274;-59
2024/03/31 06:26:10;;;;;;;;;3.00;3.00;;;;;23.06;98.57;97593.59;6095814;28;96188;-58
2024/03/31 06:29:15;;;;;;;;;4.20;3.60;;;;;23.29;98.23;97599.56;6091931;28;97827;-59
2024/03/31 06:32:17;;;;;;;;;4.00;3.00;;;;;23.51;98.00;97592.94;6099758;28;96868;-58
2024/03/31 06:35:20;;;;;;;;;4.00;4.00;;;;;23.76;99.75;97602.91;6097137;28;96177;-58
2024/03/31 06:38:21;;;;;;;;;4.00;3.00;;;;;23.94;94.17;97615.38;6091148;28;96133;-59
2024/03/31 06:41:24;;;;;;;;;4.00;2.00;;;;;24.05;91.47;97611.03;6089636;28;96563;-58
2024/03/31 06:44:28;;;;;;;;;3.80;3.00;;;;;24.19;96.49;97598.94;6078206;28;96662;-59
2024/03/31 06:47:30;;;;;;;;;4.00;4.00;;;;;24.33;95.08;97589.22;6101872;28;96280;-60
2024/03/31 06:50:33;;;;;;;;;4.75;3.75;;;;;24.47;93.60;97597.94;6082060;28;96238;-59
2024/03/31 06:53:34;;;;;;;;;5.00;3.60;;;;;24.67;96.06;97600.94;6082142;28;96311;-58
2024/03/31 06:56:37;;;;;;;;;3.00;3.00;;;;;24.90;93.74;97602.09;6063959;28;96893;-58
2024/03/31 06:59:39;;;;;;;;;4.80;2.20;;;;;25.06;84.16;97583.72;6079730;28;96133;-58
2024/03/31 07:02:48;;;;;;;;;4.00;3.00;;;;;25.20;83.79;97575.06;6086623;28;96195;-58
2024/03/31 07:05:50;;;;;;;;;4.00;3.00;;;;;25.49;81.76;97579.44;6080256;28;97241;-59
2024/03/31 07:08:53;;;;;;;;;4.00;3.80;;;;;25.94;82.23;97568.13;6081139;28;96212;-59
2024/03/31 07:11:55;;;;;;;;;5.00;3.00;;;;;26.56;79.92;97567.38;6065544;28;96437;-58
2024/03/31 07:14:59;;;;;;;;;3.00;3.00;;;;;27.26;77.39;97582.06;6063891;28;96478;-58
2024/03/31 07:18:05;;;;;;;;;6.00;4.00;;;;;27.84;73.11;97582.09;6037448;28;96556;-58
2024/03/31 07:21:07;;;;;;;;;5.00;4.00;;;;;28.37;72.68;97583.09;6046585;28;96383;-58
2024/03/31 07:24:09;;;;;;;;;4.00;3.00;;;;;29.14;68.76;97578.00;6049171;28;96746;-58
2024/03/31 07:27:11;;;;;;;;;4.00;3.00;;;;;30.26;67.00;97571.44;6040440;28;96707;-59
2024/03/31 07:30:16;;;;;;;;;4.00;3.00;;;;;31.55;57.37;97585.16;6051396;28;96447;-58
2024/03/31 07:33:18;;;;;;;;;5.00;4.00;;;;;33.21;54.54;97577.09;6031509;28;96666;-59
2024/03/31 07:36:20;;;;;;;;;4.00;3.40;;;;;34.83;44.68;97571.06;6052079;28;97090;-59
2024/03/31 07:39:21;;;;;;;;;4.00;3.00;;;;;35.80;40.03;97576.06;6049041;28;96658;-59
2024/03/31 07:42:24;;;;;;;;;4.80;3.00;;;;;35.91;37.61;97585.13;6050066;28;96360;-59
2024/03/31 07:45:26;;;;;;;;;4.00;4.00;;;;;36.35;37.54;97574.91;6046629;28;96399;-59
2024/03/31 07:48:28;;;;;;;;;4.00;3.00;;;;;36.97;37.47;97585.56;6047389;28;98689;-59
2024/03/31 07:51:30;;;;;;;;;3.00;2.00;;;;;37.71;36.18;97574.97;6048658;28;96496;-59
2024/03/31 07:54:32;;;;;;;;;4.00;3.00;;;;;38.05;35.37;97574.66;6053259;28;97085;-59
2024/03/31 07:57:34;;;;;;;;;3.20;3.00;;;;;38.36;31.91;97577.97;6019217;28;96455;-59
2024/03/31 08:00:37;;;;;;;;;4.00;2.00;;;;;38.75;31.53;97565.78;6056455;28;97608;-59
2024/03/31 08:03:39;;;;;;;;;2.00;2.00;;;;;37.56;31.80;97562.41;6043051;28;96816;-59
2024/03/31 08:06:40;;;;;;;;;4.00;3.00;;;;;37.79;31.23;97559.50;6052693;28;96356;-59
2024/03/31 08:09:42;;;;;;;;;3.20;2.80;;;;;36.31;32.52;97548.94;6027944;28;96940;-59
2024/03/31 08:12:44;;;;;;;;;4.25;3.00;;;;;35.82;33.99;97542.00;6036016;28;99064;-59
2024/03/31 08:15:47;;;;;;;;;5.40;4.00;;;;;35.99;35.52;97538.94;6043763;28;96304;-59
2024/03/31 08:18:51;;;;;;;;;4.00;3.00;;;;;35.53;32.66;97547.16;6052354;28;96548;-59
2024/03/31 08:21:52;;;;;;;;;5.00;4.00;;;;;34.95;31.95;97559.34;6050260;28;96931;-59
2024/03/31 08:24:56;;;;;;;;;3.00;3.00;;;;;34.35;32.19;97527.06;6053714;28;96358;-59
2024/03/31 08:27:57;;;;;;;;;7.00;5.25;;;;;34.13;33.95;97528.38;6064329;28;96576;-61
2024/03/31 08:31:01;;;;;;;;;4.00;3.00;;;;;34.12;33.15;97521.97;6056081;28;96644;-60
2024/03/31 08:34:02;;;;;;;;;4.00;3.20;;;;;34.62;30.86;97530.03;6051204;28;96594;-61
2024/03/31 08:37:04;;;;;;;;;5.00;3.00;;;;;34.79;29.88;97515.09;6065545;28;97275;-61
2024/03/31 08:40:07;;;;;;;;;5.00;4.00;;;;;35.94;29.00;97500.13;6049841;28;96500;-60
2024/03/31 08:43:09;;;;;;;;;5.00;4.00;;;;;36.09;27.82;97502.72;6032525;28;98747;-60
2024/03/31 08:46:13;;;;;;;;;4.00;4.00;;;;;36.23;27.53;97508.13;6033600;28;96755;-61
2024/03/31 08:49:16;;;;;;;;;4.00;3.00;;;;;36.29;27.73;97501.63;6050350;28;96847;-61
2024/03/31 08:52:18;;;;;;;;;3.00;3.00;;;;;37.07;27.59;97496.66;6034612;28;96719;-60
2024/03/31 08:55:20;;;;;;;;;5.00;4.00;;;;;37.40;26.06;97487.19;6050032;28;96490;-61
2024/03/31 08:58:21;;;;;;;;;7.00;4.00;;;;;37.95;26.01;97482.81;6051037;28;96295;-61
2024/03/31 09:01:25;;;;;;;;;6.00;4.00;;;;;36.83;27.12;97490.31;6056750;28;96604;-61
2024/03/31 09:04:27;;;;;;;;;4.75;4.75;;;;;35.99;28.11;97482.03;6064110;28;96285;-61
2024/03/31 09:07:31;;;;;;;;;4.00;3.00;;;;;34.92;28.84;97464.97;6065626;28;97246;-60
2024/03/31 09:10:33;;;;;;;;;4.00;4.00;;;;;34.87;29.27;97462.63;6051063;28;96423;-60
2024/03/31 09:13:35;;;;;;;;;6.40;5.00;;;;;34.97;30.26;97472.91;6049728;28;96506;-60
2024/03/31 09:16:38;;;;;;;;;7.00;4.00;;;;;35.42;29.07;97468.78;6052746;28;97021;-60
2024/03/31 09:19:40;;;;;;;;;4.00;4.00;;;;;36.19;28.91;97468.13;6054410;28;96922;-61
2024/03/31 09:22:42;;;;;;;;;3.60;3.60;;;;;35.25;29.68;97457.78;6061762;28;96414;-62
2024/03/31 09:25:45;;;;;;;;;5.40;4.00;;;;;34.14;31.90;97446.88;6061048;28;96899;-61
2024/03/31 09:28:46;;;;;;;;;4.00;4.00;;;;;33.28;33.51;97456.19;6044114;28;96294;-60
2024/03/31 09:31:50;;;;;;;;;5.00;4.00;;;;;32.78;33.94;97441.56;6052608;28;97048;-61
2024/03/31 09:34:51;;;;;;;;;5.50;5.00;;;;;32.58;34.71;97453.13;6048095;28;96396;-60
2024/03/31 09:37:53;;;;;;;;;6.00;4.60;;;;;32.48;33.69;97470.69;6054533;28;96394;-58
2024/03/31 09:40:54;;;;;;;;;5.00;5.00;;;;;31.94;33.75;97471.84;6052714;28;96523;-58
2024/03/31 09:43:58;;;;;;;;;6.00;5.00;;;;;31.51;34.02;97468.16;6024430;28;96832;-58
2024/03/31 09:47:01;;;;;;;;;4.00;4.00;;;;;31.98;33.90;97457.91;6035560;28;98571;-58
2024/03/31 09:50:08;;;;;;;;;4.00;3.00;;;;;32.42;34.14;97455.53;6049863;28;96139;-58
2024/03/31 09:53:15;;;;;;;;;6.00;5.00;;;;;32.57;33.48;97459.91;6051702;28;96578;-58
2024/03/31 09:56:22;;;;;;;;;4.00;3.00;;;;;32.47;33.83;97465.50;6053425;28;96750;-58
2024/03/31 09:59:25;;;;;;;;;5.20;4.80;;;;;31.83;33.73;97435.59;6050509;28;96358;-58
2024/03/31 10:02:29;;;;;;;;;3.50;3.00;;;;;31.16;35.06;97459.66;6045639;28;98506;-58
2024/03/31 10:05:37;;;;;;;;;3.40;3.00;;;;;31.04;35.76;97448.84;6051469;28;96393;-58
2024/03/31 10:08:40;;;;;;;;;5.00;4.00;;;;;30.73;34.21;97436.38;6051031;28;96974;-57
2024/03/31 10:11:42;;;;;;;;;6.00;4.00;;;;;30.79;33.60;97449.50;6067753;28;97720;-57
2024/03/31 10:14:48;;;;;;;;;9.00;7.00;;;;;31.13;32.13;97457.66;6062634;28;96330;-57
2024/03/31 10:17:51;;;;;;;;;11.00;6.00;;;;;31.87;30.72;97452.31;6051968;28;96298;-58
2024/03/31 10:20:54;;;;;;;;;6.80;5.40;;;;;33.37;31.09;97459.31;6051855;28;96624;-58
2024/03/31 10:23:56;;;;;;;;;8.60;7.00;;;;;34.64;29.09;97461.25;6056486;28;96932;-58
2024/03/31 10:26:59;;;;;;;;;7.20;5.20;;;;;36.01;29.33;97462.78;6058228;28;96516;-58
2024/03/31 10:30:01;;;;;;;;;8.40;6.00;;;;;37.99;27.42;97453.38;6061470;28;96464;-59
2024/03/31 10:33:06;;;;;;;;;7.80;7.00;;;;;39.52;24.77;97461.41;6056576;28;96472;-58
2024/03/31 10:36:10;;;;;;;;;8.25;7.00;;;;;40.48;23.17;97459.19;6055236;28;96273;-58
2024/03/31 10:39:15;;;;;;;;;8.20;7.20;;;;;41.32;22.86;97459.47;6058955;28;96397;-59
2024/03/31 10:42:18;;;;;;;;;7.00;6.00;;;;;42.34;22.66;97454.69;6058013;28;96255;-58
2024/03/31 10:45:23;;;;;;;;;9.00;7.00;;;;;43.17;21.32;97464.88;6052987;28;96365;-58
2024/03/31 10:48:27;;;;;;;;;8.00;5.00;;;;;43.69;20.76;97455.22;6033233;28;99322;-60
2024/03/31 10:51:30;;;;;;;;;7.40;6.00;;;;;43.77;21.14;97447.94;6048780;28;97395;-60
2024/03/31 10:54:36;;;;;;;;;6.00;5.00;;;;;43.87;22.47;97448.72;6047737;28;97366;-60
2024/03/31 10:57:40;;;;;;;;;7.40;7.00;;;;;44.30;21.99;97444.56;6051001;28;96890;-60
2024/03/31 11:00:43;;;;;;;;;7.00;5.00;;;;;44.21;22.97;97428.34;6049894;28;96948;-60
2024/03/31 11:03:47;;;;;;;;;7.00;6.00;;;;;44.75;22.74;97423.63;6051290;28;96778;-60
2024/03/31 11:06:49;;;;;;;;;7.00;7.00;;;;;45.27;21.23;97444.81;6044687;28;96944;-60
2024/03/31 11:09:52;;;;;;;;;13.00;11.00;;;;;43.84;19.38;97452.50;6050451;28;96296;-60
2024/03/31 11:12:55;;;;;;;;;15.00;9.50;;;;;44.28;19.53;97428.00;6058745;28;96933;-60
2024/03/31 11:15:56;;;;;;;;;13.00;9.40;;;;;44.28;19.31;97433.69;6053834;28;96723;-61
2024/03/31 11:19:00;;;;;;;;;14.80;10.00;;;;;43.03;19.69;97428.63;6053998;28;96640;-60
2024/03/31 11:22:02;;;;;;;;;12.50;9.00;;;;;41.99;19.70;97427.81;6066122;28;96769;-61
2024/03/31 11:25:06;;;;;;;;;19.00;13.40;;;;;42.15;20.04;97413.38;6060696;28;96530;-60
2024/03/31 11:28:08;;;;;;;;;12.50;10.00;;;;;42.35;20.39;97414.56;6063923;28;97176;-60
2024/03/31 11:31:11;;;;;;;;;12.50;9.00;;;;;42.89;20.61;97415.09;6056349;28;98048;-61
2024/03/31 11:34:14;;;;;;;;;12.50;9.00;;;;;43.27;19.91;97420.28;6048584;28;97603;-61
2024/03/31 11:37:17;;;;;;;;;15.40;11.00;;;;;42.82;19.70;97410.53;6054650;28;96682;-61
2024/03/31 11:40:19;;;;;;;;;13.00;8.00;;;;;42.09;19.69;97418.09;6045723;28;96819;-61
2024/03/31 11:43:20;;;;;;;;;13.40;9.60;;;;;41.56;20.00;97406.06;6048728;28;96789;-61
2024/03/31 11:46:23;;;;;;;;;18.25;12.00;;;;;41.81;20.78;97384.00;6049890;28;96585;-61
2024/03/31 11:49:26;;;;;;;;;14.40;10.60;;;;;41.15;20.32;97398.75;6059626;28;97340;-61
2024/03/31 11:52:28;;;;;;;;;10.60;8.00;;;;;39.24;21.82;97369.22;6020834;28;96702;-61
2024/03/31 11:55:31;;;;;;;;;16.00;10.00;;;;;39.07;21.75;97385.41;6056924;28;96601;-58
2024/03/31 11:58:36;;;;;;;;;14.00;9.20;;;;;38.44;22.68;97349.31;6056545;28;96582;-58
2024/03/31 12:01:38;;;;;;;;;10.80;9.20;;;;;37.58;23.36;97385.63;6045715;28;97286;-58
2024/03/31 12:04:49;;;;;;;;;12.40;11.00;;;;;36.98;23.20;97358.78;6055485;28;96516;-58
2024/03/31 12:07:51;;;;;;;;;13.25;10.50;;;;;36.47;24.36;97367.38;6031068;28;96927;-58
2024/03/31 12:10:54;;;;;;;;;16.00;9.40;;;;;35.99;24.64;97372.63;6061666;28;96711;-58
2024/03/31 12:13:57;;;;;;;;;18.80;12.40;;;;;35.46;24.90;97367.84;6047834;28;97389;-58
2024/03/31 12:16:59;;;;;;;;;16.75;12.25;;;;;34.75;25.89;97354.75;6036766;28;96767;-58
2024/03/31 12:20:08;;;;;;;;;11.60;8.40;;;;;34.13;26.59;97357.78;6031425;28;98690;-58
2024/03/31 12:23:10;;;;;;;;;13.50;10.00;;;;;33.63;27.25;97363.75;6058453;28;96359;-58
2024/03/31 12:26:12;;;;;;;;;11.00;9.00;;;;;33.06;28.14;97354.91;6062664;28;96472;-58
2024/03/31 12:29:18;;;;;;;;;11.20;9.60;;;;;32.70;27.95;97386.94;6050581;28;96307;-58
2024/03/31 12:32:22;;;;;;;;;14.60;12.00;;;;;32.49;28.39;97376.63;6065641;28;96368;-58
2024/03/31 12:35:26;;;;;;;;;15.40;11.00;;;;;31.82;28.52;97355.97;6058589;28;96436;-58
2024/03/31 12:38:28;;;;;;;;;12.00;8.20;;;;;31.89;29.29;97366.31;6051516;28;96474;-58
2024/03/31 12:41:30;;;;;;;;;15.25;9.00;;;;;31.63;29.78;97361.94;6050054;28;96666;-58
2024/03/31 12:44:32;;;;;;;;;11.00;9.00;;;;;31.21;30.15;97361.84;6050623;28;96545;-58
2024/03/31 12:47:34;;;;;;;;;16.00;11.00;;;;;30.97;29.51;97377.25;6055225;28;96319;-58
2024/03/31 12:50:38;;;;;;;;;13.00;8.67;;;;;30.45;29.44;97392.44;6052340;28;97177;-58
2024/03/31 12:53:42;;;;;;;;;13.50;7.00;;;;;30.15;31.06;97383.53;6053059;28;96376;-58
2024/03/31 12:56:44;;;;;;;;;15.00;10.00;;;;;30.26;31.02;97371.28;6054225;28;96938;-58
2024/03/31 12:59:45;;;;;;;;;13.20;9.00;;;;;30.19;30.63;97374.03;6045516;28;96395;-57
2024/03/31 13:02:47;;;;;;;;;16.00;13.00;;;;;29.96;31.51;97384.56;6053646;28;96426;-58
2024/03/31 13:05:51;;;;;;;;;14.00;10.75;;;;;29.80;31.28;97393.16;6046725;28;96288;-57
2024/03/31 13:08:54;;;;;;;;;13.25;11.00;;;;;29.29;32.18;97382.72;6065455;28;96408;-57
2024/03/31 13:11:56;;;;;;;;;9.60;8.60;;;;;29.15;32.06;97373.44;6068717;28;97565;-57
2024/03/31 13:14:58;;;;;;;;;13.00;10.40;;;;;29.32;32.74;97364.56;6061064;28;96324;-58
2024/03/31 13:17:59;;;;;;;;;14.20;11.00;;;;;29.36;32.60;97354.28;6055925;28;96337;-58
2024/03/31 13:21:03;;;;;;;;;17.40;12.00;;;;;29.55;33.38;97356.03;6062977;28;96492;-58
2024/03/31 13:24:05;;;;;;;;;14.40;11.00;;;;;29.59;33.76;97362.41;6077986;28;96302;-58
2024/03/31 13:27:07;;;;;;;;;14.40;10.00;;;;;29.72;32.41;97349.81;6048676;28;99393;-57
2024/03/31 13:30:09;;;;;;;;;14.60;12.00;;;;;29.70;34.25;97355.78;6071982;28;96297;-57
2024/03/31 13:33:12;;;;;;;;;17.00;12.00;;;;;29.67;33.82;97366.84;6055469;28;98925;-57
2024/03/31 13:36:14;;;;;;;;;13.20;10.00;;;;;29.55;33.84;97367.94;6048221;28;96770;-57
2024/03/31 13:39:16;;;;;;;;;14.40;12.00;;;;;28.89;33.72;97363.22;6064208;28;96325;-57
2024/03/31 13:42:18;;;;;;;;;13.75;10.75;;;;;28.84;34.71;97372.69;6048633;28;96672;-57
2024/03/31 13:45:20;;;;;;;;;13.40;10.00;;;;;28.44;34.93;97397.50;6063686;28;96672;-57
2024/03/31 13:48:22;;;;;;;;;11.00;7.00;;;;;28.21;35.06;97372.59;6070680;28;96977;-57
2024/03/31 13:51:25;;;;;;;;;15.00;11.00;;;;;27.83;36.19;97364.47;6088253;28;96416;-58
2024/03/31 13:54:27;;;;;;;;;13.80;10.80;;;;;27.78;36.69;97370.31;6065642;28;96321;-58
2024/03/31 13:57:28;;;;;;;;;15.00;11.00;;;;;27.86;36.85;97366.47;6068810;28;96434;-57
2024/03/31 14:00:30;;;;;;;;;15.40;9.80;;;;;27.85;36.63;97364.91;6075381;28;96471;-58
2024/03/31 14:03:31;;;;;;;;;12.80;10.00;;;;;27.71;37.53;97375.75;6076641;28;96227;-57
2024/03/31 14:06:35;;;;;;;;;16.40;11.60;;;;;27.60;36.67;97366.47;6070774;28;98451;-58
2024/03/31 14:09:37;;;;;;;;;16.00;14.00;;;;;27.63;37.40;97365.72;6069300;28;96936;-57
2024/03/31 14:12:41;;;;;;;;;11.40;9.00;;;;;27.56;38.19;97356.09;6058499;28;96642;-57